createdAt,value
2018-06-25T00:02:11.428Z,52.30
2018-06-25T00:04:39.827Z,53.00
2018-06-25T00:07:08.200Z,52.70
2018-06-25T00:09:36.467Z,52.20
2018-06-25T00:12:04.973Z,53.40
2018-06-25T00:14:33.639Z,53.50
2018-06-25T00:17:01.919Z,53.70
2018-06-25T00:19:30.196Z,53.90
2018-06-25T00:24:26.620Z,54.50
2018-06-25T00:26:55.108Z,53.60
2018-06-25T00:29:23.504Z,54.10
2018-06-25T00:31:51.935Z,54.20
2018-06-25T00:34:20.361Z,53.70
2018-06-25T00:36:48.715Z,54.10
2018-06-25T00:39:17.201Z,55.30
2018-06-25T00:41:45.506Z,55.40
2018-06-25T00:44:13.776Z,54.60
2018-06-25T00:46:42.051Z,55.00
2018-06-25T00:49:10.412Z,54.90
2018-06-25T00:51:38.704Z,54.30
2018-06-25T00:54:06.983Z,55.20
2018-06-25T00:56:35.261Z,55.10
2018-06-25T00:59:15.036Z,54.60
2018-06-25T01:01:43.389Z,54.40
2018-06-25T01:04:11.834Z,54.80
2018-06-25T01:06:40.153Z,54.50
2018-06-25T01:09:10.402Z,54.70
2018-06-25T01:11:38.819Z,54.70
2018-06-25T01:14:07.314Z,54.70
2018-06-25T01:16:35.690Z,54.20
2018-06-25T01:19:03.984Z,54.60
2018-06-25T01:21:32.318Z,54.90
2018-06-25T01:24:00.831Z,55.20
2018-06-25T01:26:29.160Z,55.60
2018-06-25T01:28:57.623Z,54.80
2018-06-25T01:31:26.090Z,55.90
2018-06-25T01:33:54.566Z,55.20
2018-06-25T01:36:22.960Z,54.70
2018-06-25T01:41:19.475Z,54.70
2018-06-25T01:43:47.881Z,55.00
2018-06-25T01:46:16.165Z,55.60
2018-06-25T01:48:44.443Z,55.60
2018-06-25T01:51:12.704Z,55.10
2018-06-25T01:53:40.982Z,54.20
2018-06-25T01:56:09.346Z,54.20
2018-06-25T01:58:37.691Z,54.20
2018-06-25T02:01:06.156Z,55.40
2018-06-25T02:03:34.598Z,55.40
2018-06-25T02:08:31.148Z,56.00
2018-06-25T02:10:59.544Z,56.90
2018-06-25T02:13:27.910Z,56.70
2018-06-25T02:15:56.303Z,56.40
2018-06-25T02:18:24.563Z,56.60
2018-06-25T02:20:53.313Z,57.10
2018-06-25T02:23:21.883Z,56.30
2018-06-25T19:36:40.108Z,41.80
2018-06-25T19:39:08.576Z,45.90
2018-06-25T19:41:36.485Z,48.20
2018-06-25T19:44:04.915Z,50.10
2018-06-25T19:46:32.615Z,51.80
2018-06-25T19:49:00.203Z,52.40
2018-06-25T19:51:27.939Z,53.30
2018-06-25T19:53:55.485Z,54.20
2018-06-25T19:56:23.125Z,54.70
2018-06-25T19:58:50.706Z,54.80
2018-06-25T20:01:18.289Z,55.30
2018-06-25T20:03:46.021Z,55.30
2018-06-25T20:06:13.660Z,55.80
2018-06-25T20:08:41.329Z,55.90
2018-06-25T20:11:09.041Z,56.30
2018-06-25T20:13:36.648Z,56.70
2018-06-25T20:16:04.557Z,56.70
2018-06-25T20:18:32.105Z,56.80
2018-06-25T20:20:59.927Z,57.40
2018-06-25T20:23:27.619Z,57.40
2018-06-25T20:25:55.352Z,57.80
2018-06-25T20:28:22.993Z,57.70
2018-06-25T20:30:50.551Z,58.00
2018-06-25T20:33:18.264Z,59.00
2018-06-25T20:35:46.040Z,59.00
2018-06-25T20:38:13.727Z,59.50
2018-06-25T20:40:41.461Z,60.00
2018-06-25T20:43:09.053Z,59.70
2018-06-25T20:45:36.843Z,59.60
2018-06-25T20:48:04.592Z,59.40
2018-06-25T20:50:32.196Z,59.20
2018-06-25T20:52:59.868Z,58.50
2018-06-25T20:55:27.539Z,59.10
2018-06-25T20:57:55.073Z,58.70
2018-06-25T21:00:22.696Z,59.50
2018-06-25T21:02:50.344Z,59.00
2018-06-25T21:05:17.864Z,59.20
2018-06-25T21:07:45.597Z,58.40
2018-06-25T21:10:13.312Z,58.30
2018-06-25T21:12:40.850Z,58.20
2018-06-25T21:15:08.397Z,57.70
2018-06-25T21:17:35.975Z,57.80
2018-06-25T21:20:03.591Z,58.20
2018-06-25T21:22:31.153Z,58.50
2018-06-25T21:24:58.708Z,58.00
2018-06-25T21:27:26.283Z,58.70
2018-06-25T21:29:53.852Z,58.90
2018-06-25T21:32:21.384Z,58.60
2018-06-25T21:34:48.947Z,58.10
2018-06-25T21:37:16.587Z,57.70
2018-06-25T21:39:44.179Z,58.00
2018-06-25T21:42:11.767Z,58.00
2018-06-25T21:44:39.488Z,58.30
2018-06-25T21:47:07.054Z,59.10
2018-06-25T21:49:34.609Z,58.80
2018-06-25T21:52:02.249Z,58.90
2018-06-25T21:54:29.912Z,59.60
2018-06-25T21:56:57.523Z,59.50
2018-06-25T21:59:25.081Z,59.40
2018-06-25T22:01:56.301Z,59.50
2018-06-25T22:04:24.267Z,59.40
2018-06-25T22:06:51.840Z,59.30
2018-06-25T22:09:19.693Z,59.40
2018-06-25T22:11:47.871Z,59.60
2018-06-25T22:14:15.439Z,60.50
2018-06-25T22:16:42.979Z,60.00
2018-06-25T22:19:10.755Z,59.60
2018-06-25T22:21:38.419Z,59.90
2018-06-25T22:24:06.036Z,59.70
2018-06-25T22:26:33.576Z,59.30
2018-06-25T22:29:01.134Z,60.00
2018-06-25T22:33:56.075Z,60.70
2018-06-25T22:36:23.623Z,60.60
2018-06-25T22:38:51.332Z,61.20
2018-06-25T22:41:18.907Z,60.80
2018-06-25T22:43:46.665Z,60.90
2018-06-25T22:46:14.317Z,61.00
2018-06-25T22:48:42.107Z,60.40
2018-06-25T22:51:09.660Z,60.40
2018-06-25T22:53:37.202Z,61.70
2018-06-25T22:56:04.847Z,61.70
2018-06-25T22:58:32.389Z,61.00
2018-06-25T23:00:59.932Z,61.50
2018-06-25T23:03:27.587Z,61.90
2018-06-25T23:05:55.393Z,62.20
2018-06-25T23:08:22.942Z,60.90
2018-06-25T23:10:50.497Z,60.90
2018-06-25T23:13:18.055Z,62.70
2018-06-25T23:15:45.593Z,63.80
2018-06-25T23:18:13.228Z,63.60
2018-06-25T23:20:40.814Z,64.70
2018-06-25T23:23:08.371Z,64.40
2018-06-25T23:25:35.909Z,64.90
2018-06-25T23:28:03.525Z,65.50
2018-06-25T23:30:31.061Z,65.60
2018-06-25T23:32:58.625Z,65.90
2018-06-25T23:35:26.167Z,65.60
2018-06-25T23:37:53.716Z,64.40
2018-06-25T23:40:21.244Z,63.80
2018-06-25T23:42:48.816Z,62.80
2018-06-25T23:45:16.471Z,62.60
2018-06-25T23:47:44.047Z,61.30
2018-06-25T23:50:11.591Z,61.10
2018-06-25T23:52:39.159Z,61.20
2018-06-25T23:55:06.692Z,61.80
2018-06-25T23:57:34.478Z,61.90
